Time;durP1;ratioP1;P1;durP2;ratioP2;P2;SDS_P1;SDS_P2;PMS_P1;PMS_P2;Temp;Humidity;BMP_temperature;BMP_pressure;BME280_temperature;BME280_humidity;BME280_pressure;Samples;Min_cycle;Max_cycle;Signal;HPM_P1;HPM_P2
2021/12/18 06:36:27;;;;;;;19.30;5.10;;;27.80;74.00;;;;;;1407630;26;20514;-81
2021/12/18 06:38:54;;;;;;;19.05;4.78;;;27.80;74.20;;;;;;5017702;28;20080;-82
2021/12/18 06:41:24;;;;;;;22.35;4.70;;;27.80;74.00;;;;;;5009674;28;20034;-82
2021/12/18 06:43:58;;;;;;;18.45;4.32;;;27.80;74.20;;;;;;5013805;28;20331;-87
2021/12/18 06:46:30;;;;;;;20.88;5.63;;;27.90;74.40;;;;;;5014506;28;20041;-81
2021/12/18 06:48:58;;;;;;;28.92;6.15;;;27.80;74.50;;;;;;4990189;28;20037;-81
2021/12/18 06:51:25;;;;;;;29.15;6.13;;;27.80;74.60;;;;;;4982497;28;20033;-80
2021/12/18 06:53:52;;;;;;;22.73;5.70;;;27.80;74.40;;;;;;4996024;28;20038;-81
2021/12/18 06:56:20;;;;;;;16.85;5.18;;;27.70;74.60;;;;;;5012216;28;20127;-80
2021/12/18 06:58:47;;;;;;;24.63;6.30;;;27.70;74.80;;;;;;5014005;28;20543;-80
2021/12/18 07:01:14;;;;;;;28.08;6.10;;;27.70;75.10;;;;;;5014013;28;20030;-77
2021/12/18 07:03:41;;;;;;;25.13;5.15;;;27.70;75.30;;;;;;5014461;28;20508;-77
2021/12/18 07:06:08;;;;;;;23.40;5.55;;;27.70;75.30;;;;;;4978430;28;20120;-78
2021/12/18 07:08:38;;;;;;;18.77;5.18;;;27.70;75.20;;;;;;5013218;28;20451;-80
2021/12/18 07:11:05;;;;;;;25.42;5.40;;;27.70;75.10;;;;;;5014334;28;20045;-77
2021/12/18 07:13:38;;;;;;;19.30;4.57;;;27.70;75.20;;;;;;5011722;28;20037;-75
2021/12/18 07:16:06;;;;;;;25.10;4.85;;;27.60;75.30;;;;;;4995523;28;20030;-75
2021/12/18 07:18:36;;;;;;;20.98;4.63;;;27.60;75.20;;;;;;5012992;28;20049;-78
2021/12/18 07:21:03;;;;;;;17.63;5.25;;;27.60;75.20;;;;;;5013269;28;20030;-78
2021/12/18 07:23:30;;;;;;;18.55;4.80;;;27.50;75.20;;;;;;4981536;28;20042;-89
2021/12/18 07:25:58;;;;;;;21.88;5.50;;;27.60;75.00;;;;;;4961980;28;20084;-81
2021/12/18 07:28:25;;;;;;;16.98;4.93;;;27.50;75.00;;;;;;4952970;28;20033;-81
2021/12/18 07:30:52;;;;;;;19.27;5.45;;;27.60;74.80;;;;;;5010576;28;20152;-82
2021/12/18 07:33:19;;;;;;;22.25;5.53;;;27.70;74.60;;;;;;4999765;28;20519;-82
2021/12/18 07:35:46;;;;;;;20.73;5.40;;;27.70;74.20;;;;;;4966741;28;20088;-79
2021/12/18 07:38:20;;;;;;;20.88;5.32;;;27.70;74.10;;;;;;5012637;28;20042;-77
2021/12/18 07:40:47;;;;;;;16.30;4.70;;;27.80;74.00;;;;;;4995601;28;20121;-82
2021/12/18 07:43:14;;;;;;;16.65;4.50;;;27.80;74.00;;;;;;5000114;28;20515;-82
2021/12/18 07:45:44;;;;;;;21.65;5.93;;;27.70;74.10;;;;;;4976717;28;20089;-85
2021/12/18 07:48:14;;;;;;;15.02;5.18;;;27.70;74.20;;;;;;4993779;28;20449;-83
2021/12/18 07:50:41;;;;;;;19.90;5.20;;;27.70;74.40;;;;;;4993749;28;20153;-84
2021/12/18 07:53:09;;;;;;;30.75;5.60;;;27.70;74.50;;;;;;5000010;28;20045;-84
2021/12/18 07:55:36;;;;;;;26.40;5.28;;;27.60;74.80;;;;;;5012949;28;20038;-82
2021/12/18 07:58:03;;;;;;;20.50;5.50;;;27.60;75.10;;;;;;4994310;28;20125;-81
2021/12/18 08:00:33;;;;;;;23.95;6.13;;;27.50;74.80;;;;;;5011262;28;20121;-82
2021/12/18 08:03:01;;;;;;;19.95;5.05;;;27.50;75.30;;;;;;4994897;28;20484;-82
2021/12/18 08:05:28;;;;;;;25.65;5.82;;;27.40;75.50;;;;;;5010970;28;20264;-82
2021/12/18 08:07:55;;;;;;;20.65;5.90;;;27.40;75.80;;;;;;5010952;28;20164;-82
2021/12/18 08:10:22;;;;;;;16.25;5.43;;;27.30;76.00;;;;;;4992622;28;20034;-81
2021/12/18 08:12:49;;;;;;;21.05;5.28;;;27.30;75.80;;;;;;4994150;28;20060;-83
2021/12/18 08:15:16;;;;;;;24.33;5.32;;;27.30;75.60;;;;;;4974659;28;20365;-75
2021/12/18 08:17:44;;;;;;;22.95;5.72;;;27.40;75.70;;;;;;5010467;28;20050;-73
2021/12/18 08:20:11;;;;;;;21.98;5.63;;;27.40;75.70;;;;;;5010003;28;20125;-75
2021/12/18 08:22:38;;;;;;;22.23;5.65;;;27.40;75.70;;;;;;5008862;28;20065;-86
2021/12/18 08:25:06;;;;;;;22.27;7.90;;;27.30;75.80;;;;;;5011755;28;20057;-76
2021/12/18 08:27:33;;;;;;;23.45;6.68;;;27.30;76.00;;;;;;4993190;28;20038;-75
2021/12/18 08:30:01;;;;;;;17.73;4.95;;;27.30;76.40;;;;;;4975872;28;20035;-76
2021/12/18 08:32:28;;;;;;;20.67;5.65;;;27.20;76.40;;;;;;5008440;28;20034;-72
2021/12/18 08:34:55;;;;;;;19.75;5.10;;;27.20;76.60;;;;;;5011041;28;20157;-77
2021/12/18 08:37:22;;;;;;;28.00;5.88;;;27.10;76.80;;;;;;5012017;28;20042;-77
2021/12/18 08:39:49;;;;;;;20.13;5.60;;;27.10;76.90;;;;;;5011445;28;20042;-77
2021/12/18 08:42:17;;;;;;;21.83;6.15;;;27.10;77.00;;;;;;4974829;28;20541;-77
2021/12/18 08:44:44;;;;;;;23.50;5.85;;;27.00;77.30;;;;;;5000466;28;20427;-75
2021/12/18 08:47:12;;;;;;;22.58;6.05;;;27.00;77.50;;;;;;5012009;28;20438;-76
2021/12/18 08:49:39;;;;;;;26.80;6.18;;;27.00;77.40;;;;;;5008180;28;20328;-77
2021/12/18 08:52:06;;;;;;;20.50;5.13;;;26.90;77.40;;;;;;4992434;28;20030;-77
2021/12/18 08:54:34;;;;;;;25.83;5.47;;;26.90;77.30;;;;;;4994166;28;20034;-78
2021/12/18 08:57:01;;;;;;;24.83;6.05;;;26.90;77.40;;;;;;5000438;28;20030;-81
2021/12/18 08:59:28;;;;;;;19.42;5.55;;;26.90;77.50;;;;;;4993426;28;20492;-77
2021/12/18 09:01:55;;;;;;;22.77;6.40;;;26.90;77.60;;;;;;4998280;28;20030;-77
2021/12/18 09:04:22;;;;;;;25.20;6.20;;;26.90;77.70;;;;;;5012054;28;20357;-75
2021/12/18 09:06:49;;;;;;;21.08;5.38;;;26.90;77.70;;;;;;5011262;28;20026;-73
2021/12/18 09:09:17;;;;;;;19.05;5.55;;;26.80;77.80;;;;;;5022738;28;20125;-79
2021/12/18 09:11:44;;;;;;;21.40;5.22;;;26.80;77.90;;;;;;4994334;28;20030;-79
2021/12/18 09:14:11;;;;;;;19.08;5.32;;;26.80;78.10;;;;;;4987482;28;20040;-76
2021/12/18 09:16:38;;;;;;;21.88;5.43;;;26.80;78.10;;;;;;4974854;28;20022;-77
2021/12/18 09:19:05;;;;;;;23.75;6.10;;;26.80;78.00;;;;;;4974070;28;20133;-77
2021/12/18 09:21:33;;;;;;;19.38;5.57;;;26.80;78.20;;;;;;5002558;28;20050;-78
2021/12/18 09:24:00;;;;;;;25.05;5.70;;;26.80;78.30;;;;;;5005466;28;20050;-75
2021/12/18 09:26:27;;;;;;;19.48;5.18;;;26.70;78.30;;;;;;5010754;28;20112;-75
2021/12/18 09:28:54;;;;;;;21.13;5.32;;;26.80;78.30;;;;;;4992731;28;20407;-76
2021/12/18 09:31:21;;;;;;;25.25;6.60;;;26.70;78.40;;;;;;5011107;28;20105;-76
2021/12/18 09:33:49;;;;;;;27.65;8.30;;;26.60;78.40;;;;;;4977361;28;20457;-76
2021/12/18 09:36:16;;;;;;;28.55;7.53;;;26.70;78.40;;;;;;4993280;28;20484;-76
2021/12/18 09:38:43;;;;;;;22.80;6.38;;;26.60;78.50;;;;;;5010893;28;20048;-77
2021/12/18 09:41:10;;;;;;;25.52;6.13;;;26.60;78.50;;;;;;4993331;28;20044;-78
2021/12/18 09:43:37;;;;;;;21.70;6.20;;;26.60;78.40;;;;;;4976061;28;20048;-79
